Time;durP1;ratioP1;P1;durP2;ratioP2;P2;SDS_P1;SDS_P2;PMS_P1;PMS_P2;Temp;Humidity;BMP_temperature;BMP_pressure;BME280_temperature;BME280_humidity;BME280_pressure;Samples;Min_cycle;Max_cycle;Signal;HPM_P1;HPM_P2
2023/03/12 06:55:57;;;;;;;;;;;;;;;;;;5572612;23;19923;-94
2023/03/12 06:58:23;;;;;;;;;;;;;;;;;;4907693;29;19924;-92
2023/03/12 07:00:48;;;;;;;;;;;;;;;;;;4908081;29;19916;-93
2023/03/12 07:03:34;;;;;;;;;;;;;;;;;;4882937;29;20490;-92
2023/03/12 07:05:59;;;;;;;;;;;;;;;;;;4899135;29;19971;-95
2023/03/12 07:08:25;;;;;;;;;;;;;;;;;;4882883;29;19911;-94
2023/03/12 07:10:50;;;;;;;;;;;;;;;;;;4884316;29;19915;-93
2023/03/12 07:13:15;;;;;;;;;;;;;;;;;;4884547;29;19912;-92
2023/03/12 07:15:41;;;;;;;;;;;;;;;;;;4884679;29;19915;-94
2023/03/12 07:18:07;;;;;;;;;;;;;;;;;;4884670;29;19915;-89
2023/03/12 10:48:16;;;;;;;;;;;;;;;;;;4889963;29;20383;-91
2023/03/12 10:50:41;;;;;;;;;;;;;;;;;;4880978;29;19924;-89
2023/03/12 13:37:25;;;;;;;;;;;;;;;;;;5335909;23;19923;-86
2023/03/12 13:39:51;;;;;;;;;;;;;;;;;;4909843;29;20292;-86
2023/03/12 13:42:22;;;;;;;;;;;;;;;;;;4910967;29;20010;-87
2023/03/12 13:44:47;;;;;;;;;;;;;;;;;;4864439;29;20363;-86
2023/03/12 13:47:16;;;;;;;;;;;;;;;;;;4877080;29;19923;-85
2023/03/12 13:49:41;;;;;;;;;;;;;;;;;;4883057;29;19961;-86
2023/03/12 13:52:13;;;;;;;;;;;;;;;;;;4883042;29;19915;-86
2023/03/12 13:54:46;;;;;;;;;;;;;;;;;;4895289;29;19916;-86
2023/03/12 13:57:28;;;;;;;;;;;;;;;;;;4880791;29;20014;-85
2023/03/12 13:59:55;;;;;;;;;;;;;;;;;;4880947;29;19915;-85
2023/03/12 14:02:23;;;;;;;;;;;;;;;;;;4880800;29;20283;-84
2023/03/12 14:04:49;;;;;;;;;;;;;;;;;;4863985;29;19916;-85
2023/03/12 14:07:47;;;;;;;;;;;;;;;;;;4880843;29;19975;-86
2023/03/12 14:10:18;;;;;;;;;;;;;;;;;;4839608;29;20374;-87
2023/03/12 14:13:02;;;;;;;;;;;;;;;;;;4876088;29;19919;-85
2023/03/12 14:15:39;;;;;;;;;;;;;;;;;;4882480;29;19998;-86
2023/03/12 14:18:14;;;;;;;;;;;;;;;;;;4899363;29;20010;-85
2023/03/12 14:20:51;;;;;;;;;;;;;;;;;;4897756;29;19919;-85
2023/03/12 14:23:16;;;;;;;;;;;;;;;;;;4899126;29;19915;-84
2023/03/12 14:25:44;;;;;;;;;;;;;;;;;;4899182;29;20021;-85
2023/03/12 14:28:16;;;;;;;;;;;;;;;;;;4899967;29;19919;-87
2023/03/12 14:30:59;;;;;;;;;;;;;;;;;;4899954;29;19919;-86
2023/03/12 14:33:26;;;;;;;;;;;;;;;;;;4899011;29;20374;-84
2023/03/12 14:35:56;;;;;;;;;;;;;;;;;;4899126;29;20002;-84
2023/03/12 14:38:40;;;;;;;;;;;;;;;;;;4897867;29;19930;-86
2023/03/12 14:41:14;;;;;;;;;;;;;;;;;;4894482;29;19919;-85
2023/03/12 14:43:41;;;;;;;;;;;;;;;;;;4897696;29;19923;-86
2023/03/12 14:46:14;;;;;;;;;;;;;;;;;;4892621;29;19916;-86
2023/03/12 14:48:39;;;;;;;;;;;;;;;;;;4880319;29;19928;-90
2023/03/12 14:51:05;;;;;;;;;;;;;;;;;;4863740;29;20485;-86
2023/03/12 14:53:35;;;;;;;;;;;;;;;;;;4880233;29;20371;-84
2023/03/12 14:56:26;;;;;;;;;;;;;;;;;;4880262;29;19920;-84
2023/03/12 14:58:52;;;;;;;;;;;;;;;;;;4880078;29;20011;-84
2023/03/12 15:01:19;;;;;;;;;;;;;;;;;;4891276;29;19960;-84
2023/03/12 15:04:05;;;;;;;;;;;;;;;;;;4881108;29;19924;-85
2023/03/12 15:06:36;;;;;;;;;;;;;;;;;;4897163;29;19915;-84
2023/03/12 15:09:03;;;;;;;;;;;;;;;;;;4892992;29;19920;-85
2023/03/12 15:11:29;;;;;;;;;;;;;;;;;;4880374;29;19923;-86
2023/03/12 15:13:56;;;;;;;;;;;;;;;;;;4880025;29;19922;-86
2023/03/12 15:16:21;;;;;;;;;;;;;;;;;;4880116;29;19920;-86
2023/03/12 15:18:48;;;;;;;;;;;;;;;;;;4879725;29;19923;-86
2023/03/12 15:21:14;;;;;;;;;;;;;;;;;;4880610;29;19915;-85
2023/03/12 15:23:41;;;;;;;;;;;;;;;;;;4879983;29;19911;-85
2023/03/12 15:26:11;;;;;;;;;;;;;;;;;;4879901;29;19916;-85
2023/03/12 15:28:36;;;;;;;;;;;;;;;;;;4879752;29;19911;-86
2023/03/12 15:31:07;;;;;;;;;;;;;;;;;;4879899;29;19922;-86
2023/03/12 15:33:33;;;;;;;;;;;;;;;;;;4879861;29;20067;-86
2023/03/12 15:36:13;;;;;;;;;;;;;;;;;;4862892;29;19998;-84
2023/03/12 15:38:43;;;;;;;;;;;;;;;;;;4879802;29;19915;-88
2023/03/12 15:41:16;;;;;;;;;;;;;;;;;;4863225;29;19958;-87
2023/03/12 15:43:42;;;;;;;;;;;;;;;;;;4878458;29;20255;-87
2023/03/12 15:46:10;;;;;;;;;;;;;;;;;;4879921;29;19923;-88
2023/03/12 15:48:37;;;;;;;;;;;;;;;;;;4879729;29;19915;-90
2023/03/12 15:51:10;;;;;;;;;;;;;;;;;;4881162;29;19922;-95
2023/03/12 15:53:37;;;;;;;;;;;;;;;;;;4865354;29;19968;-94
2023/03/12 15:56:19;;;;;;;;;;;;;;;;;;4880668;29;19916;-90
2023/03/12 15:58:44;;;;;;;;;;;;;;;;;;4880149;29;20413;-91
2023/03/12 18:08:23;;;;;;;;;;;;;;;;;;5351062;23;20009;-91
2023/03/12 18:10:49;;;;;;;;;;;;;;;;;;4887843;29;19955;-91
2023/03/12 18:13:14;;;;;;;;;;;;;;;;;;4884151;29;19919;-92
2023/03/12 18:15:40;;;;;;;;;;;;;;;;;;4907165;29;19915;-96
2023/03/12 18:18:05;;;;;;;;;;;;;;;;;;4888625;29;19915;-95
2023/03/12 18:20:31;;;;;;;;;;;;;;;;;;4902737;29;19919;-93
2023/03/12 18:22:56;;;;;;;;;;;;;;;;;;4901329;29;19916;-96
2023/03/12 18:25:22;;;;;;;;;;;;;;;;;;4893553;29;20438;-93
2023/03/12 18:27:48;;;;;;;;;;;;;;;;;;4917309;29;19926;-95
2023/03/12 18:30:14;;;;;;;;;;;;;;;;;;4887231;29;19916;-95
2023/03/12 18:32:39;;;;;;;;;;;;;;;;;;4894954;29;19978;-96
2023/03/12 18:35:09;;;;;;;;;;;;;;;;;;4928882;29;19919;-95
2023/03/12 18:37:35;;;;;;;;;;;;;;;;;;4909738;29;19919;-94
2023/03/12 18:40:00;;;;;;;;;;;;;;;;;;4904991;29;19922;-96
2023/03/12 18:42:25;;;;;;;;;;;;;;;;;;4890915;29;19922;-96
2023/03/12 18:44:54;;;;;;;;;;;;;;;;;;4895123;29;19895;-96
2023/03/12 18:47:19;;;;;;;;;;;;;;;;;;4896974;29;20331;-95
2023/03/12 18:49:57;;;;;;;;;;;;;;;;;;4913727;23;19934;-95
2023/03/12 18:52:22;;;;;;;;;;;;;;;;;;4907078;29;19937;-94
2023/03/12 18:54:48;;;;;;;;;;;;;;;;;;4902430;29;20425;-94
2023/03/12 18:57:13;;;;;;;;;;;;;;;;;;4902850;29;19961;-94
2023/03/12 18:59:38;;;;;;;;;;;;;;;;;;4902179;29;19919;-96
2023/03/12 19:02:04;;;;;;;;;;;;;;;;;;4904751;29;19915;-94
2023/03/12 19:04:29;;;;;;;;;;;;;;;;;;4902417;29;19938;-96
2023/03/12 19:06:54;;;;;;;;;;;;;;;;;;4924593;23;19923;-95
2023/03/12 19:09:20;;;;;;;;;;;;;;;;;;4902739;29;19915;-96
2023/03/12 19:11:46;;;;;;;;;;;;;;;;;;4903883;29;20285;-94
2023/03/12 19:14:12;;;;;;;;;;;;;;;;;;4909695;29;20362;-96
2023/03/12 19:16:37;;;;;;;;;;;;;;;;;;4910997;29;19922;-96
2023/03/12 19:19:09;;;;;;;;;;;;;;;;;;4912599;29;19903;-95
2023/03/12 19:21:34;;;;;;;;;;;;;;;;;;4908956;29;19915;-95
2023/03/12 19:23:59;;;;;;;;;;;;;;;;;;4903985;29;19922;-96
2023/03/12 19:26:25;;;;;;;;;;;;;;;;;;4904682;29;19915;-95
2023/03/12 19:28:50;;;;;;;;;;;;;;;;;;4907528;29;19915;-96
2023/03/12 19:31:15;;;;;;;;;;;;;;;;;;4906784;29;19974;-95
2023/03/12 19:33:41;;;;;;;;;;;;;;;;;;4904270;29;19919;-95
2023/03/12 19:36:07;;;;;;;;;;;;;;;;;;4901650;29;20289;-95
2023/03/12 19:38:32;;;;;;;;;;;;;;;;;;4904830;29;19918;-93
2023/03/12 19:40:58;;;;;;;;;;;;;;;;;;4907155;29;20362;-94
2023/03/12 19:43:23;;;;;;;;;;;;;;;;;;4908428;29;20373;-95
2023/03/12 19:45:49;;;;;;;;;;;;;;;;;;4907911;29;20009;-96
2023/03/12 19:48:15;;;;;;;;;;;;;;;;;;4926422;29;19946;-94
2023/03/12 19:50:40;;;;;;;;;;;;;;;;;;4917468;29;19955;-91
2023/03/12 19:53:06;;;;;;;;;;;;;;;;;;4926666;29;20009;-95
2023/03/12 19:55:31;;;;;;;;;;;;;;;;;;4907614;29;19962;-96
2023/03/12 19:57:57;;;;;;;;;;;;;;;;;;4906749;29;20267;-96
2023/03/12 20:00:22;;;;;;;;;;;;;;;;;;4906670;29;20425;-95
2023/03/12 20:02:47;;;;;;;;;;;;;;;;;;4906722;29;20396;-95
2023/03/12 20:05:13;;;;;;;;;;;;;;;;;;4906313;29;19915;-96
2023/03/12 20:07:39;;;;;;;;;;;;;;;;;;4906424;29;19978;-95
2023/03/12 20:10:04;;;;;;;;;;;;;;;;;;4908437;29;20008;-96
2023/03/12 20:12:30;;;;;;;;;;;;;;;;;;4906972;29;19915;-95
2023/03/12 20:14:56;;;;;;;;;;;;;;;;;;4907038;29;19931;-94
2023/03/12 20:17:21;;;;;;;;;;;;;;;;;;4910050;29;20382;-96
2023/03/12 20:19:46;;;;;;;;;;;;;;;;;;4912236;29;19915;-96
2023/03/12 20:22:12;;;;;;;;;;;;;;;;;;4914836;29;19926;-96
2023/03/12 20:24:37;;;;;;;;;;;;;;;;;;4903783;29;19927;-95
2023/03/12 20:27:03;;;;;;;;;;;;;;;;;;4890292;29;19923;-95
2023/03/12 20:29:28;;;;;;;;;;;;;;;;;;4892509;29;20385;-95
2023/03/12 20:31:54;;;;;;;;;;;;;;;;;;4900417;29;19915;-96
2023/03/12 20:34:22;;;;;;;;;;;;;;;;;;4901755;29;20446;-94
2023/03/12 20:36:56;;;;;;;;;;;;;;;;;;4891652;29;19915;-94
2023/03/12 20:39:22;;;;;;;;;;;;;;;;;;4888960;29;19986;-95
2023/03/12 20:41:47;;;;;;;;;;;;;;;;;;4889651;29;19946;-96
2023/03/12 20:44:13;;;;;;;;;;;;;;;;;;4889826;29;19916;-96
2023/03/12 20:46:38;;;;;;;;;;;;;;;;;;4887598;29;19915;-96
2023/03/12 20:49:03;;;;;;;;;;;;;;;;;;4886283;29;19922;-95
2023/03/12 20:51:29;;;;;;;;;;;;;;;;;;4886993;29;19943;-95
2023/03/12 20:53:54;;;;;;;;;;;;;;;;;;4888139;29;19923;-95
2023/03/12 20:56:19;;;;;;;;;;;;;;;;;;4906243;29;20010;-95
2023/03/12 20:58:45;;;;;;;;;;;;;;;;;;4905507;29;19941;-94
2023/03/12 21:01:10;;;;;;;;;;;;;;;;;;4906468;29;19915;-95
2023/03/12 21:03:35;;;;;;;;;;;;;;;;;;4907749;29;19922;-94
2023/03/12 21:06:01;;;;;;;;;;;;;;;;;;4909205;29;19915;-93
2023/03/12 21:08:27;;;;;;;;;;;;;;;;;;4907688;29;19919;-96
2023/03/12 21:10:52;;;;;;;;;;;;;;;;;;4904968;29;19918;-95
2023/03/12 21:13:19;;;;;;;;;;;;;;;;;;4904711;29;20281;-95
2023/03/12 21:15:44;;;;;;;;;;;;;;;;;;4904298;29;19915;-94
2023/03/12 21:18:09;;;;;;;;;;;;;;;;;;4905959;29;20377;-96
2023/03/12 21:20:38;;;;;;;;;;;;;;;;;;4905387;29;20457;-94
2023/03/12 21:23:06;;;;;;;;;;;;;;;;;;4905055;29;20025;-93
2023/03/12 21:25:35;;;;;;;;;;;;;;;;;;4904473;29;19950;-93
2023/03/12 21:28:01;;;;;;;;;;;;;;;;;;4905226;29;19921;-94
2023/03/12 21:30:26;;;;;;;;;;;;;;;;;;4904811;29;19963;-95
2023/03/12 21:32:52;;;;;;;;;;;;;;;;;;4904736;29;19919;-95
2023/03/12 21:35:18;;;;;;;;;;;;;;;;;;4905869;29;20402;-94
2023/03/12 21:37:44;;;;;;;;;;;;;;;;;;4904830;29;19931;-95
2023/03/12 21:40:10;;;;;;;;;;;;;;;;;;4905176;29;19915;-96
2023/03/12 21:42:35;;;;;;;;;;;;;;;;;;4906893;29;19922;-96
2023/03/12 21:45:00;;;;;;;;;;;;;;;;;;4908458;29;20377;-95
2023/03/12 21:47:26;;;;;;;;;;;;;;;;;;4907118;29;20382;-95
2023/03/12 21:49:51;;;;;;;;;;;;;;;;;;4905883;29;19939;-94
2023/03/12 21:52:16;;;;;;;;;;;;;;;;;;4905011;29;19915;-94
2023/03/12 21:54:42;;;;;;;;;;;;;;;;;;4904049;29;19919;-94
2023/03/12 21:57:07;;;;;;;;;;;;;;;;;;4904243;29;20278;-94
2023/03/12 21:59:33;;;;;;;;;;;;;;;;;;4904940;29;20323;-95
2023/03/12 22:02:17;;;;;;;;;;;;;;;;;;;;;
2023/03/12 22:04:43;;;;;;;;;;;;;;;;;;4921572;29;19915;-95
2023/03/12 22:07:08;;;;;;;;;;;;;;;;;;4903164;29;19962;-94
2023/03/12 22:09:33;;;;;;;;;;;;;;;;;;4904435;29;19947;-92
2023/03/12 22:11:59;;;;;;;;;;;;;;;;;;4903866;29;20001;-93
2023/03/12 22:14:24;;;;;;;;;;;;;;;;;;4904013;29;20277;-93
2023/03/12 22:16:50;;;;;;;;;;;;;;;;;;4906284;29;19922;-95
2023/03/12 22:19:15;;;;;;;;;;;;;;;;;;4909632;29;19916;-94
2023/03/12 22:21:41;;;;;;;;;;;;;;;;;;4907099;29;19931;-94
2023/03/12 22:24:07;;;;;;;;;;;;;;;;;;4890813;29;20358;-94
2023/03/12 22:26:32;;;;;;;;;;;;;;;;;;4886074;29;19967;-94
2023/03/12 22:28:59;;;;;;;;;;;;;;;;;;4885921;29;19922;-95
2023/03/12 22:31:25;;;;;;;;;;;;;;;;;;4884164;29;19943;-92
2023/03/12 22:33:51;;;;;;;;;;;;;;;;;;4884294;29;19923;-95
2023/03/12 22:36:17;;;;;;;;;;;;;;;;;;4885061;29;19912;-93
2023/03/12 22:38:43;;;;;;;;;;;;;;;;;;4893264;29;20371;-95
2023/03/12 22:41:11;;;;;;;;;;;;;;;;;;4895440;29;19915;-96
2023/03/12 22:43:36;;;;;;;;;;;;;;;;;;4891026;29;19911;-95
2023/03/12 22:46:02;;;;;;;;;;;;;;;;;;4889330;29;19919;-95
2023/03/12 22:48:27;;;;;;;;;;;;;;;;;;4889651;29;19962;-95
2023/03/12 22:50:53;;;;;;;;;;;;;;;;;;4888999;29;20326;-95
2023/03/12 22:53:18;;;;;;;;;;;;;;;;;;4889179;29;20309;-96
2023/03/12 22:55:43;;;;;;;;;;;;;;;;;;4888953;29;19915;-96
2023/03/12 22:58:09;;;;;;;;;;;;;;;;;;4889412;29;19985;-96
2023/03/12 23:00:34;;;;;;;;;;;;;;;;;;4888893;29;20422;-96
2023/03/12 23:03:00;;;;;;;;;;;;;;;;;;4888571;29;19915;-95
2023/03/12 23:05:25;;;;;;;;;;;;;;;;;;4887775;29;19916;-96
2023/03/12 23:07:50;;;;;;;;;;;;;;;;;;4885201;29;19920;-96
2023/03/12 23:10:16;;;;;;;;;;;;;;;;;;4885212;29;20298;-94
2023/03/12 23:12:41;;;;;;;;;;;;;;;;;;4886600;29;19920;-94
2023/03/12 23:15:07;;;;;;;;;;;;;;;;;;4888727;29;19916;-94
2023/03/12 23:17:32;;;;;;;;;;;;;;;;;;4901535;29;20006;-92
2023/03/12 23:19:58;;;;;;;;;;;;;;;;;;4907077;29;20342;-95
